CYGV

Havre St Pierre Airport

Havre St-Pierre, Quebec, Canada
METAR CYGV 232221Z AUTO 25009KT 9SM -SN BKN019 OVC027 M06/M08 A3022 RMK SLP240
Observed Flight Rules
Feb-23 @ 22:21 UTC (15 minutes ago) Marginal Visual Flight Rules
Wind Visibility Clouds Conditions
250° at 9 knots 9 miles
  • Broken at 1,900' AGL
  • Overcast at 2,700' AGL
  • Light Snow
Temperatures Readings
Current -6°C / 21°F
Dewpoint -8°C / 18°F
Humidity 86%
Altimeter 30.22" Hg
Pressure 1024 hPa
Elevation 33
METAR CYGV 232221Z AUTO 25009KT 9SM -SN BKN019 OVC027 M06/M08 A3022 RMK SLP240
Observed Flight Rules
Feb-23 @ 22:21 UTC
(15 minutes ago)
MVFR
Wind Visibility
250° at 9 knots 9 miles
Clouds
  • Broken at 1,900' AGL
  • Overcast at 2,700' AGL
Conditions
  • Light Snow
Temperature Dewpoint
-6°C / 21°F -8°C / 18°F
Humidity Altimeter Pressure
86% 30.22" Hg 1024 hPa